Time;durP1;ratioP1;P1;durP2;ratioP2;P2;SDS_P1;SDS_P2;PMS_P1;PMS_P2;Temp;Humidity;BMP_temperature;BMP_pressure;BME280_temperature;BME280_humidity;BME280_pressure;Samples;Min_cycle;Max_cycle;Signal;HPM_P1;HPM_P2
2021/12/07 00:01:51;;;;;;;8.30;6.47;;;2.60;89.70;;;;;;5047071;28;20462;-67
2021/12/07 00:04:16;;;;;;;9.48;6.97;;;2.60;89.70;;;;;;5050321;28;20084;-68
2021/12/07 00:06:43;;;;;;;8.00;6.47;;;2.60;89.70;;;;;;5035015;28;20502;-68
2021/12/07 00:09:15;;;;;;;7.97;6.35;;;2.50;89.80;;;;;;5036173;28;20077;-67
2021/12/07 00:11:41;;;;;;;;;;;2.50;89.70;;;;;;5043946;28;20120;-68
2021/12/07 00:14:12;;;;;;;8.32;5.95;;;2.40;89.60;;;;;;5049879;28;19974;-68
2021/12/07 00:16:40;;;;;;;7.70;5.47;;;2.40;89.80;;;;;;5049416;28;20048;-67
2021/12/07 00:19:06;;;;;;;8.70;5.80;;;2.40;89.70;;;;;;5031447;28;20128;-67
2021/12/07 00:21:31;;;;;;;6.72;5.28;;;2.40;89.80;;;;;;5048325;28;20108;-67
2021/12/07 00:23:57;;;;;;;7.15;5.57;;;2.40;89.60;;;;;;5049767;28;20065;-68
2021/12/07 00:26:23;;;;;;;7.28;5.40;;;2.40;89.60;;;;;;5023867;28;20057;-67
2021/12/07 00:28:50;;;;;;;9.13;5.80;;;2.30;89.70;;;;;;5050107;28;20048;-67
2021/12/07 00:31:40;;;;;;;6.63;5.22;;;2.30;89.80;;;;;;5040556;28;20549;-67
2021/12/07 00:36:34;;;;;;;6.25;4.97;;;2.30;89.60;;;;;;5049298;28;20140;-67
2021/12/07 00:39:00;;;;;;;6.25;5.22;;;2.30;89.60;;;;;;5049837;28;20052;-68
2021/12/07 00:41:25;;;;;;;6.18;4.60;;;2.30;89.60;;;;;;5046018;28;20040;-68
2021/12/07 00:43:51;;;;;;;6.57;5.07;;;2.30;89.60;;;;;;5049476;28;20510;-68
2021/12/07 00:46:19;;;;;;;5.45;4.18;;;2.30;89.60;;;;;;5045897;28;20116;-68
2021/12/07 00:48:44;;;;;;;6.93;4.38;;;2.30;89.70;;;;;;5049704;28;20156;-67
2021/12/07 00:51:10;;;;;;;5.65;4.15;;;2.20;89.70;;;;;;5041289;28;20037;-67
2021/12/07 00:53:36;;;;;;;5.18;3.97;;;2.20;89.70;;;;;;5030264;28;20452;-67
2021/12/07 00:56:03;;;;;;;7.00;4.28;;;2.20;89.70;;;;;;5047672;28;20037;-67
2021/12/07 00:58:29;;;;;;;4.80;3.78;;;2.20;89.70;;;;;;5049437;28;20033;-68
2021/12/07 01:01:04;;;;;;;5.35;3.70;;;2.10;89.70;;;;;;5041401;28;20406;-67
2021/12/07 01:03:31;;;;;;;5.80;4.25;;;2.10;89.80;;;;;;5042048;28;20068;-67
2021/12/07 01:06:15;;;;;;;4.82;3.70;;;2.10;89.80;;;;;;5049024;28;20063;-67
2021/12/07 01:08:59;;;;;;;5.18;3.97;;;2.20;89.90;;;;;;5048217;28;20055;-67
2021/12/07 01:25:16;;;;;;;5.15;4.10;;;2.20;90.00;;;;;;5049061;28;20497;-67
2021/12/07 01:27:43;;;;;;;5.10;4.00;;;2.30;90.00;;;;;;5034346;28;20037;-67
2021/12/07 01:30:16;;;;;;;4.85;4.10;;;2.30;90.00;;;;;;5045655;28;20080;-67
2021/12/07 01:35:59;;;;;;;6.75;4.28;;;2.30;90.00;;;;;;5048739;28;20061;-68
2021/12/07 01:41:10;;;;;;;4.40;3.80;;;2.40;90.00;;;;;;5037009;28;20041;-67
2021/12/07 01:49:58;;;;;;;4.97;4.22;;;2.40;90.10;;;;;;5043632;28;20421;-68
2021/12/07 01:59:48;;;;;;;6.20;4.28;;;2.40;90.20;;;;;;5048712;28;20137;-67
2021/12/07 02:02:16;;;;;;;4.90;4.18;;;2.40;90.10;;;;;;5046878;28;20045;-67
2021/12/07 02:04:42;;;;;;;7.82;4.28;;;2.40;90.10;;;;;;5047175;28;20041;-67
2021/12/07 02:07:09;;;;;;;5.07;4.22;;;2.40;90.20;;;;;;5046813;28;20044;-67
2021/12/07 02:09:42;;;;;;;5.35;4.10;;;2.50;90.20;;;;;;5048200;28;20072;-67
2021/12/07 02:12:11;;;;;;;6.03;3.63;;;2.50;90.10;;;;;;5046316;28;20060;-67
2021/12/07 02:14:37;;;;;;;5.45;4.13;;;2.60;90.20;;;;;;5048327;28;20057;-68
2021/12/07 02:17:06;;;;;;;7.38;4.55;;;2.50;90.20;;;;;;5044131;28;20087;-67
2021/12/07 02:19:32;;;;;;;5.22;4.40;;;2.60;90.20;;;;;;5045207;28;20053;-67
2021/12/07 02:21:59;;;;;;;4.78;3.63;;;2.60;90.10;;;;;;5047341;28;20083;-67
2021/12/07 02:24:25;;;;;;;5.88;4.57;;;2.60;90.30;;;;;;5044024;28;20533;-67
2021/12/07 02:26:51;;;;;;;5.47;4.35;;;2.70;90.30;;;;;;5041669;28;20099;-67
2021/12/07 02:29:18;;;;;;;7.78;4.43;;;2.70;90.10;;;;;;5045280;28;20068;-68
2021/12/07 02:31:44;;;;;;;6.60;4.63;;;2.70;90.10;;;;;;5040467;28;20047;-67
2021/12/07 02:34:11;;;;;;;7.80;4.47;;;2.70;90.10;;;;;;5051815;28;20045;-67
2021/12/07 02:36:37;;;;;;;6.35;4.93;;;2.70;90.20;;;;;;5045036;28;20093;-67
2021/12/07 02:39:08;;;;;;;7.32;4.78;;;2.80;90.20;;;;;;5052187;28;20079;-68
2021/12/07 02:41:34;;;;;;;5.73;4.60;;;2.80;90.30;;;;;;5038365;28;20513;-67
2021/12/07 02:44:00;;;;;;;5.30;4.50;;;2.90;90.30;;;;;;5051486;28;20283;-67
2021/12/07 02:46:26;;;;;;;5.35;4.55;;;2.90;90.20;;;;;;5046236;28;20562;-67
2021/12/07 02:48:52;;;;;;;5.43;4.20;;;3.00;90.20;;;;;;5050767;28;20048;-67
2021/12/07 02:51:19;;;;;;;8.00;4.47;;;3.00;90.10;;;;;;5051969;28;20585;-67
2021/12/07 02:53:46;;;;;;;5.32;4.45;;;3.10;90.10;;;;;;5049456;28;20040;-67
2021/12/07 02:56:12;;;;;;;6.03;4.28;;;3.10;90.00;;;;;;5049066;28;20048;-67
2021/12/07 02:58:41;;;;;;;5.40;4.07;;;3.10;90.00;;;;;;5051952;28;20122;-67
2021/12/07 03:01:16;;;;;;;7.75;4.75;;;3.20;90.00;;;;;;5049599;28;20049;-67
2021/12/07 03:03:54;;;;;;;6.80;4.40;;;3.20;90.00;;;;;;5050735;28;20047;-67
2021/12/07 03:06:31;;;;;;;6.72;4.30;;;3.20;90.00;;;;;;5051636;28;20036;-67
2021/12/07 03:28:08;;;;;;;6.18;4.30;;;3.60;90.50;;;;;;5041128;28;20053;-67
2021/12/07 03:30:34;;;;;;;7.47;4.15;;;3.60;90.70;;;;;;5043976;28;20441;-67
2021/12/07 03:33:02;;;;;;;10.15;4.57;;;3.60;90.80;;;;;;5039980;28;20039;-67
2021/12/07 03:35:29;;;;;;;8.25;4.43;;;3.60;90.80;;;;;;5040848;28;20049;-67
2021/12/07 03:37:55;;;;;;;7.88;4.60;;;3.70;90.90;;;;;;5040014;28;20466;-67
2021/12/07 03:40:21;;;;;;;9.68;4.40;;;3.70;90.90;;;;;;5044273;28;20072;-68
2021/12/07 03:42:47;;;;;;;11.57;4.25;;;3.70;90.90;;;;;;5045646;28;20036;-67
2021/12/07 03:45:12;;;;;;;7.60;3.65;;;3.80;90.90;;;;;;5050204;28;20045;-67
2021/12/07 03:47:39;;;;;;;13.80;4.30;;;3.80;91.00;;;;;;5050862;28;20087;-67
2021/12/07 03:50:07;;;;;;;8.35;3.67;;;3.90;90.90;;;;;;5050923;28;20045;-67
2021/12/07 03:52:33;;;;;;;8.23;3.65;;;3.90;91.00;;;;;;5049122;28;20533;-67
2021/12/07 03:54:58;;;;;;;10.00;3.60;;;3.90;91.20;;;;;;5050390;28;20124;-67
2021/12/07 03:57:24;;;;;;;7.03;3.70;;;3.90;91.10;;;;;;5049817;28;20045;-67
2021/12/07 03:59:50;;;;;;;9.65;3.10;;;3.90;91.10;;;;;;5050650;28;20060;-67
2021/12/07 04:02:16;;;;;;;14.63;3.92;;;3.90;90.90;;;;;;5049907;28;20051;-68
2021/12/07 04:04:41;;;;;;;14.20;4.18;;;3.90;91.00;;;;;;5049745;28;20440;-67
2021/12/07 04:07:07;;;;;;;9.35;3.78;;;4.00;90.90;;;;;;5034718;28;20049;-67
2021/12/07 04:09:33;;;;;;;7.05;2.90;;;4.00;90.90;;;;;;5047573;28;20055;-67
2021/12/07 04:11:59;;;;;;;11.52;3.40;;;4.00;90.80;;;;;;5046337;28;20047;-67
2021/12/07 04:14:26;;;;;;;7.22;2.55;;;4.10;90.80;;;;;;5048258;28;20045;-67
2021/12/07 04:16:51;;;;;;;6.57;2.35;;;4.10;90.90;;;;;;5036000;28;20060;-68
2021/12/07 04:19:17;;;;;;;11.68;1.70;;;4.10;90.80;;;;;;5046978;28;20044;-67
2021/12/07 04:21:43;;;;;;;5.93;2.22;;;4.10;90.70;;;;;;5037386;28;20044;-67
2021/12/07 04:24:08;;;;;;;7.20;2.17;;;4.20;90.40;;;;;;5049312;28;20120;-67
2021/12/07 04:26:34;;;;;;;4.30;1.83;;;4.20;90.30;;;;;;5048347;28;20041;-67
2021/12/07 04:29:00;;;;;;;9.00;2.00;;;4.20;90.20;;;;;;5048599;28;20090;-67
2021/12/07 04:31:26;;;;;;;6.50;2.10;;;4.20;90.20;;;;;;5050301;28;20484;-68
2021/12/07 04:33:51;;;;;;;6.05;1.77;;;4.20;90.20;;;;;;5047735;28;20037;-68
2021/12/07 04:36:17;;;;;;;6.40;1.73;;;4.20;90.30;;;;;;5049507;28;20045;-67
2021/12/07 04:38:43;;;;;;;4.60;2.20;;;4.20;90.20;;;;;;5049691;28;20516;-67
2021/12/07 04:41:10;;;;;;;4.82;1.67;;;4.20;90.30;;;;;;5038652;28;20037;-68
2021/12/07 04:43:38;;;;;;;8.88;3.83;;;4.30;90.30;;;;;;5041004;28;20041;-67
2021/12/07 04:46:26;;;;;;;3.58;1.65;;;4.30;90.30;;;;;;5049161;28;20493;-68
2021/12/07 04:59:58;;;;;;;5.97;1.85;;;4.30;90.00;;;;;;5039898;28;20041;-67
2021/12/07 05:02:24;;;;;;;7.80;1.70;;;4.20;89.80;;;;;;5048880;28;20049;-68
2021/12/07 05:04:49;;;;;;;8.00;2.63;;;4.20;89.60;;;;;;5048545;28;20707;-67
2021/12/07 05:07:21;;;;;;;6.00;1.67;;;4.20;89.50;;;;;;5048841;28;20041;-67
2021/12/07 05:14:42;;;;;;;5.28;1.38;;;4.20;89.30;;;;;;5046740;28;20045;-67
2021/12/07 05:17:42;;;;;;;8.07;1.40;;;4.20;89.30;;;;;;5028449;28;20045;-68
2021/12/07 05:26:05;;;;;;;5.30;1.45;;;4.20;89.10;;;;;;5044580;28;20056;-67
2021/12/07 05:39:27;;;;;;;12.55;2.97;;;4.10;89.30;;;;;;5048678;28;20051;-67
2021/12/07 05:41:54;;;;;;;10.70;2.88;;;4.00;89.30;;;;;;5047763;28;20044;-67
2021/12/07 05:44:19;;;;;;;7.95;3.55;;;3.90;89.40;;;;;;5048260;28;20035;-67
2021/12/07 05:46:45;;;;;;;9.00;3.38;;;3.90;89.40;;;;;;5048232;28;20037;-67
2021/12/07 05:49:11;;;;;;;11.18;3.80;;;3.80;89.40;;;;;;5047784;28;20044;-67
2021/12/07 05:51:37;;;;;;;9.15;3.45;;;3.80;89.40;;;;;;5047110;28;20059;-67
2021/12/07 05:54:03;;;;;;;12.20;3.25;;;3.80;89.60;;;;;;5048748;28;20120;-67
2021/12/07 05:56:29;;;;;;;11.85;3.80;;;3.80;89.60;;;;;;5043985;28;20127;-67
2021/12/07 05:58:54;;;;;;;9.07;3.38;;;3.70;89.60;;;;;;5048827;28;20180;-67
2021/12/07 06:01:20;;;;;;;8.07;3.55;;;3.70;89.60;;;;;;5048483;28;20047;-67
2021/12/07 06:03:46;;;;;;;14.77;3.65;;;3.70;89.70;;;;;;5046830;28;20504;-67
2021/12/07 06:06:11;;;;;;;15.63;4.45;;;3.70;89.70;;;;;;5050880;28;20103;-67
2021/12/07 06:08:37;;;;;;;9.07;2.13;;;3.70;89.80;;;;;;5051515;28;20052;-67
2021/12/07 06:11:03;;;;;;;9.95;2.10;;;3.70;89.80;;;;;;5052353;28;20040;-66
2021/12/07 06:13:28;;;;;;;14.57;2.55;;;3.80;89.80;;;;;;5053097;28;20077;-67
2021/12/07 06:15:54;;;;;;;8.52;1.83;;;3.80;89.80;;;;;;5051791;28;20109;-67
2021/12/07 06:18:20;;;;;;;9.20;2.88;;;3.90;89.70;;;;;;5051721;28;20549;-66
2021/12/07 06:20:45;;;;;;;8.13;4.28;;;3.90;89.70;;;;;;5052820;28;20045;-67
2021/12/07 06:23:15;;;;;;;9.02;2.70;;;3.90;89.70;;;;;;5052431;28;20036;-67
2021/12/07 06:25:40;;;;;;;9.40;1.80;;;3.90;89.50;;;;;;5052011;28;20048;-67
2021/12/07 06:28:06;;;;;;;4.10;1.52;;;3.90;89.50;;;;;;5051512;28;20678;-67
2021/12/07 06:30:32;;;;;;;5.95;1.80;;;3.90;89.40;;;;;;5052103;28;20048;-67
2021/12/07 06:32:58;;;;;;;6.95;1.48;;;3.90;89.40;;;;;;5051302;28;20051;-67
2021/12/07 06:35:23;;;;;;;5.13;1.55;;;3.90;89.30;;;;;;5051319;28;20044;-66
2021/12/07 06:37:49;;;;;;;8.85;2.67;;;3.90;89.20;;;;;;5052138;28;20498;-66
2021/12/07 06:40:15;;;;;;;5.28;1.63;;;3.90;89.20;;;;;;5051427;28;20048;-66
2021/12/07 06:42:41;;;;;;;6.95;1.63;;;3.90;89.10;;;;;;5050355;28;20452;-67
2021/12/07 06:45:10;;;;;;;8.65;1.83;;;3.90;89.10;;;;;;5052014;28;20179;-67
2021/12/07 06:47:36;;;;;;;7.45;1.40;;;3.90;89.20;;;;;;5044784;28;20040;-67
2021/12/07 06:50:07;;;;;;;6.60;2.05;;;3.90;89.10;;;;;;5040769;28;20045;-67
2021/12/07 06:52:33;;;;;;;7.55;1.55;;;3.90;89.00;;;;;;5037850;28;20037;-67
2021/12/07 06:55:03;;;;;;;9.55;1.85;;;4.00;89.10;;;;;;5036906;28;20813;-67
2021/12/07 06:57:29;;;;;;;8.52;1.25;;;4.00;89.10;;;;;;5045054;28;20112;-67
2021/12/07 06:59:55;;;;;;;5.60;2.08;;;4.00;89.20;;;;;;5046128;28;20108;-67
2021/12/07 07:02:21;;;;;;;6.75;1.45;;;4.00;89.10;;;;;;5039941;28;20037;-66
2021/12/07 07:04:46;;;;;;;6.18;1.30;;;4.10;89.00;;;;;;5034849;28;20053;-66
2021/12/07 07:07:13;;;;;;;7.32;1.38;;;4.00;88.90;;;;;;5037247;28;20136;-66
2021/12/07 07:09:38;;;;;;;7.47;1.75;;;4.00;88.80;;;;;;5048439;28;20409;-66
2021/12/07 07:12:04;;;;;;;8.93;1.85;;;4.00;88.90;;;;;;5040078;28;20049;-68
2021/12/07 07:14:30;;;;;;;9.90;3.05;;;4.00;89.00;;;;;;5033595;28;20167;-68
2021/12/07 07:16:56;;;;;;;8.90;1.60;;;3.90;88.80;;;;;;5045001;28;20059;-67
2021/12/07 07:19:24;;;;;;;10.65;2.08;;;4.00;88.90;;;;;;5038968;28;20042;-68
2021/12/07 07:21:49;;;;;;;10.63;2.60;;;4.00;89.00;;;;;;5048741;28;20049;-68
2021/12/07 07:24:15;;;;;;;10.93;2.47;;;4.00;89.70;;;;;;5049680;28;20051;-66
2021/12/07 07:26:41;;;;;;;17.60;2.78;;;4.10;89.00;;;;;;5049619;28;20595;-66
2021/12/07 07:29:06;;;;;;;8.95;1.65;;;4.10;88.70;;;;;;5050472;28;20102;-66
2021/12/07 07:31:32;;;;;;;12.77;1.83;;;4.00;88.70;;;;;;5041073;28;20037;-66
2021/12/07 07:33:58;;;;;;;7.13;1.40;;;4.00;88.90;;;;;;5051067;28;20510;-66
2021/12/07 07:36:24;;;;;;;12.10;1.95;;;4.00;88.70;;;;;;5049268;28;20045;-64
2021/12/07 07:38:49;;;;;;;8.80;1.70;;;4.00;88.90;;;;;;5049943;28;20044;-65
2021/12/07 07:41:15;;;;;;;9.70;1.67;;;4.10;89.00;;;;;;5050715;28;20040;-64
2021/12/07 07:43:41;;;;;;;8.55;1.88;;;4.10;88.90;;;;;;5051079;28;20166;-64
2021/12/07 07:46:06;;;;;;;7.07;2.22;;;4.10;89.00;;;;;;5051355;28;20087;-64
2021/12/07 07:48:32;;;;;;;13.75;3.78;;;4.10;89.10;;;;;;5049734;28;20064;-64
2021/12/07 07:50:57;;;;;;;12.18;1.83;;;4.10;89.20;;;;;;5051006;28;20127;-64
2021/12/07 07:53:23;;;;;;;13.25;1.88;;;4.00;89.20;;;;;;5050574;28;20041;-64
2021/12/07 07:55:51;;;;;;;13.10;1.83;;;4.00;89.20;;;;;;5051189;28;20044;-64
2021/12/07 07:58:18;;;;;;;7.43;2.38;;;4.00;89.20;;;;;;5050133;28;20129;-65
2021/12/07 08:00:45;;;;;;;11.15;3.08;;;3.90;89.20;;;;;;5050291;28;20069;-64
2021/12/07 08:03:10;;;;;;;13.02;3.78;;;4.00;89.10;;;;;;5050218;28;20033;-64
2021/12/07 08:05:36;;;;;;;6.78;1.60;;;4.00;89.20;;;;;;5049787;28;20075;-64
2021/12/07 08:08:02;;;;;;;6.32;1.58;;;3.90;89.10;;;;;;5045495;28;20044;-64
2021/12/07 08:10:28;;;;;;;10.82;1.98;;;3.90;89.20;;;;;;5048565;28;20091;-64
2021/12/07 08:13:06;;;;;;;12.35;1.92;;;3.90;89.20;;;;;;5048418;28;20718;-64
2021/12/07 08:15:38;;;;;;;12.60;3.35;;;4.00;89.20;;;;;;5036591;28;20528;-64
2021/12/07 08:18:05;;;;;;;12.50;1.70;;;3.90;89.00;;;;;;5041671;28;20164;-63
2021/12/07 08:20:31;;;;;;;11.48;2.28;;;3.90;89.10;;;;;;5046957;28;20033;-63
2021/12/07 08:22:58;;;;;;;12.55;1.83;;;3.90;89.20;;;;;;5048749;28;20607;-63
2021/12/07 08:25:24;;;;;;;13.43;2.47;;;3.80;89.20;;;;;;5047809;28;20048;-63
2021/12/07 08:27:50;;;;;;;16.00;2.53;;;3.80;89.30;;;;;;5048659;28;20558;-63
2021/12/07 08:30:16;;;;;;;12.90;2.40;;;3.80;89.50;;;;;;5048916;28;20045;-63
2021/12/07 08:32:46;;;;;;;10.57;3.15;;;3.70;89.60;;;;;;5045926;28;20045;-63
2021/12/07 08:35:15;;;;;;;13.13;3.33;;;3.80;89.70;;;;;;5049356;28;21121;-63
2021/12/07 08:37:43;;;;;;;12.15;2.25;;;3.80;89.80;;;;;;5047567;28;20053;-63
2021/12/07 08:40:10;;;;;;;10.27;2.33;;;3.90;89.70;;;;;;5048749;28;20049;-63
2021/12/07 08:42:37;;;;;;;8.38;2.22;;;3.90;89.70;;;;;;5048956;28;20040;-63
2021/12/07 08:45:04;;;;;;;15.75;2.45;;;3.90;89.70;;;;;;5049262;28;20033;-63
2021/12/07 08:47:30;;;;;;;13.13;3.20;;;3.90;89.90;;;;;;5047979;28;20052;-63
2021/12/07 08:49:57;;;;;;;13.85;1.90;;;4.00;89.80;;;;;;5029995;28;20049;-63
2021/12/07 08:52:24;;;;;;;12.32;2.50;;;4.10;89.80;;;;;;5046907;28;20162;-63
2021/12/07 09:00:03;;;;;;;12.38;3.05;;;4.20;89.50;;;;;;5044296;28;20040;-63
2021/12/07 09:02:28;;;;;;;11.30;2.10;;;4.30;89.50;;;;;;5047875;28;20402;-63
2021/12/07 09:04:54;;;;;;;10.55;1.80;;;4.30;89.50;;;;;;5046914;28;20040;-63
2021/12/07 09:07:21;;;;;;;13.80;2.60;;;4.40;89.50;;;;;;5048956;28;20051;-63
2021/12/07 09:09:47;;;;;;;5.85;1.30;;;4.40;89.50;;;;;;5048365;28;20045;-63
2021/12/07 09:12:15;;;;;;;7.35;1.80;;;4.40;89.40;;;;;;5049195;28;20083;-63
2021/12/07 09:14:42;;;;;;;5.53;1.48;;;4.50;89.40;;;;;;5048406;28;20535;-63
2021/12/07 09:17:10;;;;;;;7.20;1.92;;;4.50;89.30;;;;;;5048128;28;20036;-63
2021/12/07 09:19:36;;;;;;;15.35;1.88;;;4.60;89.20;;;;;;5047008;28;20145;-63
2021/12/07 09:22:03;;;;;;;8.82;2.28;;;4.60;89.20;;;;;;5045292;28;21028;-63
2021/12/07 09:24:29;;;;;;;11.48;1.75;;;4.60;89.10;;;;;;5046227;28;20128;-63
2021/12/07 09:26:55;;;;;;;7.05;1.98;;;4.60;89.10;;;;;;5047523;28;20065;-63
2021/12/07 09:29:22;;;;;;;9.75;1.67;;;4.60;89.10;;;;;;5047845;28;20504;-63
2021/12/07 09:31:48;;;;;;;8.85;1.92;;;4.60;89.10;;;;;;5046819;28;20049;-63
2021/12/07 09:34:13;;;;;;;10.27;1.65;;;4.70;89.10;;;;;;5043953;28;20755;-63
2021/12/07 09:36:41;;;;;;;10.60;1.80;;;4.70;89.00;;;;;;5048188;28;20056;-63
2021/12/07 09:39:10;;;;;;;6.97;1.70;;;4.70;88.90;;;;;;5046180;28;20080;-63
2021/12/07 09:41:36;;;;;;;9.02;1.92;;;4.70;88.80;;;;;;5044997;28;20127;-63
2021/12/07 09:44:03;;;;;;;7.70;1.50;;;4.80;88.80;;;;;;5045687;28;20041;-63
2021/12/07 09:46:29;;;;;;;8.50;2.03;;;4.80;88.70;;;;;;5045150;28;20507;-63
2021/12/07 09:48:55;;;;;;;8.80;2.17;;;4.80;88.70;;;;;;5047353;28;20124;-63
2021/12/07 09:51:24;;;;;;;12.98;2.83;;;4.80;88.70;;;;;;5045710;28;21822;-63
2021/12/07 09:53:52;;;;;;;13.63;4.30;;;4.80;88.70;;;;;;5044022;28;20131;-62
2021/12/07 09:56:19;;;;;;;7.57;1.70;;;4.80;88.70;;;;;;5047004;28;20559;-62
2021/12/07 09:58:48;;;;;;;11.05;1.83;;;4.80;88.80;;;;;;5046272;28;20096;-63
2021/12/07 10:01:13;;;;;;;8.57;2.05;;;4.90;88.70;;;;;;5045632;28;20473;-63
2021/12/07 10:03:39;;;;;;;11.57;1.90;;;4.90;88.70;;;;;;5047353;28;20044;-63
2021/12/07 10:06:06;;;;;;;9.13;1.88;;;4.90;88.70;;;;;;5047207;28;20045;-63
2021/12/07 10:08:31;;;;;;;17.70;1.98;;;4.90;88.70;;;;;;5028744;28;20045;-63
2021/12/07 10:11:00;;;;;;;10.60;4.00;;;5.00;88.80;;;;;;5047783;28;20044;-63
2021/12/07 10:13:28;;;;;;;11.18;2.15;;;5.00;89.00;;;;;;5047270;28;20041;-63
2021/12/07 10:15:56;;;;;;;8.85;1.80;;;5.10;89.00;;;;;;5047109;28;20578;-63
2021/12/07 10:18:24;;;;;;;8.68;2.10;;;5.10;89.10;;;;;;5046444;28;20509;-63
2021/12/07 10:20:59;;;;;;;8.07;1.85;;;5.10;89.00;;;;;;5045574;28;20106;-63
2021/12/07 10:23:36;;;;;;;8.35;2.00;;;5.20;89.10;;;;;;5041712;28;20045;-64
2021/12/07 10:26:07;;;;;;;11.98;2.40;;;5.20;89.10;;;;;;5042006;28;20037;-63
2021/12/07 10:28:52;;;;;;;12.38;2.20;;;5.20;89.20;;;;;;5044149;28;20107;-64
2021/12/07 10:31:46;;;;;;;11.82;2.50;;;5.20;89.10;;;;;;5039899;28;20405;-63
2021/12/07 10:34:14;;;;;;;19.67;3.35;;;5.30;89.30;;;;;;5046643;28;20052;-63
2021/12/07 10:36:43;;;;;;;12.75;2.63;;;5.40;89.60;;;;;;5007636;28;1097694;-63
2021/12/07 10:39:26;;;;;;;7.88;2.03;;;5.40;89.60;;;;;;5046120;28;20578;-63
2021/12/07 10:41:58;;;;;;;16.67;2.63;;;5.60;89.50;;;;;;5045663;28;20095;-64
2021/12/07 10:44:30;;;;;;;11.57;2.03;;;5.60;89.60;;;;;;5039000;28;20566;-64
2021/12/07 10:47:03;;;;;;;13.80;3.42;;;5.60;89.50;;;;;;5045132;28;20703;-64
2021/12/07 10:49:37;;;;;;;10.95;2.55;;;5.70;89.60;;;;;;5044748;28;20417;-64
2021/12/07 10:52:05;;;;;;;12.50;2.83;;;5.80;89.50;;;;;;5044792;28;20411;-64
2021/12/07 10:54:41;;;;;;;12.90;3.78;;;5.90;89.40;;;;;;5050885;28;20047;-63
2021/12/07 10:57:10;;;;;;;12.73;2.72;;;5.90;89.20;;;;;;5049963;28;20076;-64
2021/12/07 10:59:40;;;;;;;8.93;2.05;;;5.90;89.00;;;;;;5048511;28;20045;-63
2021/12/07 11:02:15;;;;;;;11.10;2.45;;;5.90;88.90;;;;;;5050000;28;20087;-63
2021/12/07 11:04:45;;;;;;;12.30;2.28;;;5.90;88.90;;;;;;5050410;28;20053;-63
2021/12/07 11:07:17;;;;;;;13.65;2.55;;;5.90;88.90;;;;;;5049733;28;20066;-63
2021/12/07 11:09:46;;;;;;;10.68;4.00;;;6.00;89.00;;;;;;5050737;28;20045;-63
2021/12/07 11:12:15;;;;;;;11.07;2.42;;;6.00;88.80;;;;;;5047707;28;20115;-64
2021/12/07 11:14:51;;;;;;;11.77;2.53;;;6.00;88.60;;;;;;5050198;28;20053;-64
2021/12/07 11:17:31;;;;;;;10.70;2.50;;;6.00;88.40;;;;;;5051490;28;20490;-63
2021/12/07 11:19:57;;;;;;;12.50;3.00;;;6.00;88.20;;;;;;5042446;28;20060;-63
2021/12/07 11:22:26;;;;;;;15.75;2.58;;;6.00;87.90;;;;;;5050375;28;20045;-64
2021/12/07 11:24:54;;;;;;;10.65;2.63;;;6.10;87.70;;;;;;5045147;28;20095;-64
2021/12/07 11:30:09;;;;;;;17.40;3.63;;;6.10;87.90;;;;;;5050856;28;20049;-64
2021/12/07 11:32:35;;;;;;;6.28;1.88;;;6.20;88.00;;;;;;5043437;28;20045;-63
2021/12/07 11:35:16;;;;;;;17.48;2.92;;;6.20;88.00;;;;;;5049385;28;20041;-64
2021/12/07 11:37:42;;;;;;;9.80;2.63;;;6.40;87.80;;;;;;5050315;28;20579;-63
2021/12/07 11:40:09;;;;;;;10.63;2.45;;;6.40;87.50;;;;;;5050847;28;20059;-64
2021/12/07 11:42:38;;;;;;;7.65;1.80;;;6.40;86.90;;;;;;5049691;28;20562;-64
2021/12/07 11:45:18;;;;;;;12.25;2.50;;;6.50;86.60;;;;;;5050702;28;20040;-63
2021/12/07 11:47:45;;;;;;;11.57;2.47;;;6.50;86.70;;;;;;5050232;28;20067;-63
2021/12/07 11:50:35;;;;;;;8.95;2.17;;;6.60;86.70;;;;;;5050402;28;20505;-63
2021/12/07 11:53:04;;;;;;;10.43;2.17;;;6.60;86.40;;;;;;5049857;28;20502;-63
2021/12/07 11:55:31;;;;;;;14.77;2.70;;;6.70;86.30;;;;;;5049337;28;20094;-63
2021/12/07 11:57:58;;;;;;;11.05;2.00;;;6.70;85.60;;;;;;5050058;28;20037;-62
2021/12/07 12:00:35;;;;;;;13.23;2.10;;;6.70;85.70;;;;;;5049753;28;20052;-63
2021/12/07 12:03:07;;;;;;;11.57;1.90;;;6.80;85.90;;;;;;5044767;28;20042;-64
2021/12/07 12:05:34;;;;;;;11.27;2.10;;;6.80;85.50;;;;;;5044159;28;20072;-63
2021/12/07 12:08:01;;;;;;;10.93;2.35;;;6.80;85.60;;;;;;5049305;28;20404;-63
2021/12/07 12:10:29;;;;;;;9.10;2.30;;;6.80;85.50;;;;;;5050318;28;20051;-63
2021/12/07 12:13:13;;;;;;;15.15;2.42;;;6.90;85.70;;;;;;5048384;28;20043;-63
2021/12/07 12:15:46;;;;;;;13.50;2.20;;;6.90;85.50;;;;;;5049886;28;20080;-63
2021/12/07 12:18:36;;;;;;;12.75;2.45;;;6.90;85.50;;;;;;5050077;28;20545;-63
2021/12/07 12:21:26;;;;;;;18.70;3.17;;;6.90;85.60;;;;;;5042240;28;20053;-63
2021/12/07 12:24:06;;;;;;;28.13;6.25;;;6.80;85.60;;;;;;5041326;28;20432;-63
2021/12/07 12:26:34;;;;;;;13.48;5.07;;;6.80;85.70;;;;;;5043848;28;20497;-63
2021/12/07 12:29:01;;;;;;;14.27;3.45;;;6.80;85.70;;;;;;5043490;28;20048;-63
2021/12/07 12:31:53;;;;;;;14.13;3.30;;;6.80;85.60;;;;;;5047756;28;20048;-63
2021/12/07 12:34:24;;;;;;;;;;;6.80;85.80;;;;;;5046628;28;20390;-63
2021/12/07 12:37:21;;;;;;;12.27;2.67;;;6.60;85.40;;;;;;5044043;28;19971;-63
2021/12/07 12:39:48;;;;;;;15.43;3.28;;;6.70;85.80;;;;;;5046788;28;20045;-63
2021/12/07 12:42:39;;;;;;;19.50;3.25;;;6.60;86.10;;;;;;5049413;28;20510;-63
2021/12/07 12:45:21;;;;;;;12.98;3.10;;;6.60;85.80;;;;;;5046104;28;20061;-63
2021/12/07 12:47:59;;;;;;;20.02;3.08;;;6.60;85.90;;;;;;5047032;28;20742;-64
2021/12/07 12:50:43;;;;;;;13.93;2.75;;;6.60;86.00;;;;;;5048868;28;20107;-65
2021/12/07 12:53:17;;;;;;;15.55;3.67;;;6.60;86.10;;;;;;5042919;28;20604;-64
2021/12/07 12:56:02;;;;;;;14.65;3.13;;;6.60;86.20;;;;;;5046165;28;20045;-64
2021/12/07 12:58:27;;;;;;;15.85;3.60;;;6.50;86.20;;;;;;5034480;28;20049;-64
2021/12/07 13:01:09;;;;;;;18.05;4.13;;;6.50;86.30;;;;;;5043126;28;20053;-65
2021/12/07 13:03:44;;;;;;;12.45;3.22;;;6.50;86.30;;;;;;5045772;28;20049;-65
2021/12/07 13:06:14;;;;;;;15.73;3.55;;;6.50;86.30;;;;;;5043631;28;20060;-65
2021/12/07 13:09:00;;;;;;;10.77;2.72;;;6.40;86.30;;;;;;5025755;28;20418;-64
2021/12/07 13:11:39;;;;;;;13.50;5.05;;;6.50;86.40;;;;;;5046905;28;20049;-65
2021/12/07 13:14:10;;;;;;;13.10;3.00;;;6.50;86.60;;;;;;5041224;28;20029;-64
2021/12/07 13:16:36;;;;;;;14.48;3.95;;;6.50;86.60;;;;;;5039956;28;20056;-64
2021/12/07 13:19:05;;;;;;;10.30;2.85;;;6.50;86.50;;;;;;5042047;28;20041;-64
2021/12/07 13:21:36;;;;;;;9.93;2.70;;;6.60;86.40;;;;;;5035625;28;20332;-65
2021/12/07 13:24:10;;;;;;;13.48;2.88;;;6.60;86.40;;;;;;5039505;28;20119;-65
2021/12/07 13:26:51;;;;;;;16.90;3.33;;;6.60;86.30;;;;;;5027479;28;20124;-64
2021/12/07 13:29:20;;;;;;;11.55;3.10;;;6.60;86.10;;;;;;5043291;28;20168;-65
2021/12/07 13:31:51;;;;;;;15.60;2.75;;;6.60;85.90;;;;;;5040381;28;20049;-66
2021/12/07 13:34:30;;;;;;;14.65;3.03;;;6.60;86.00;;;;;;5021287;28;20045;-66
2021/12/07 13:37:02;;;;;;;9.70;2.75;;;6.60;86.10;;;;;;5043994;28;20056;-65
2021/12/07 13:39:29;;;;;;;;;;;6.60;86.00;;;;;;5045515;28;20045;-66
2021/12/07 13:41:55;;;;;;;11.88;3.25;;;6.40;85.80;;;;;;5043535;28;19995;-65
2021/12/07 13:44:21;;;;;;;11.57;3.80;;;6.50;86.20;;;;;;5046214;28;20128;-65
2021/12/07 13:46:52;;;;;;;11.35;3.10;;;6.50;86.30;;;;;;5045161;28;20124;-65
2021/12/07 13:49:18;;;;;;;11.45;3.55;;;6.50;86.30;;;;;;5042606;28;20409;-65
2021/12/07 13:51:44;;;;;;;11.50;2.63;;;6.50;86.20;;;;;;5044698;28;20043;-66
2021/12/07 13:54:16;;;;;;;12.32;3.30;;;6.50;86.20;;;;;;5042965;28;20048;-66
2021/12/07 13:56:41;;;;;;;;;;;6.40;86.10;;;;;;5045039;28;20115;-64
2021/12/07 13:59:13;;;;;;;10.80;2.88;;;6.40;86.10;;;;;;5044022;28;20449;-65
2021/12/07 14:01:46;;;;;;;12.50;2.92;;;6.40;86.30;;;;;;5036395;28;20067;-64
2021/12/07 14:04:12;;;;;;;12.20;2.95;;;6.30;86.20;;;;;;5044147;28;20045;-65
2021/12/07 14:06:45;;;;;;;11.65;3.28;;;6.20;86.10;;;;;;5045737;28;20076;-64
2021/12/07 14:09:11;;;;;;;14.50;3.58;;;6.30;86.40;;;;;;5043959;28;20045;-65
2021/12/07 14:11:38;;;;;;;11.65;3.58;;;6.20;86.10;;;;;;5034243;28;20037;-66
2021/12/07 14:14:13;;;;;;;12.25;3.13;;;6.10;85.90;;;;;;5037227;28;20048;-65
2021/12/07 14:16:43;;;;;;;11.77;3.38;;;6.10;86.20;;;;;;5042862;28;20076;-65
2021/12/07 14:19:10;;;;;;;21.73;3.30;;;6.10;86.40;;;;;;5045174;28;20103;-65
2021/12/07 14:21:37;;;;;;;14.25;3.25;;;6.10;86.30;;;;;;5035287;28;20044;-65
2021/12/07 14:24:08;;;;;;;14.13;2.80;;;6.10;86.20;;;;;;5005192;28;20042;-65
2021/12/07 14:26:39;;;;;;;14.13;2.88;;;6.00;86.50;;;;;;5037775;28;20041;-65
2021/12/07 14:29:12;;;;;;;13.43;3.40;;;6.00;86.30;;;;;;5047901;28;20127;-65
2021/12/07 14:31:58;;;;;;;10.55;2.80;;;5.90;86.40;;;;;;5041946;28;20041;-65
2021/12/07 14:34:25;;;;;;;20.02;5.00;;;5.90;86.50;;;;;;5048669;28;20041;-65
2021/12/07 14:36:57;;;;;;;13.55;2.88;;;5.70;86.50;;;;;;5050629;28;20057;-66
2021/12/07 14:39:28;;;;;;;;;;;5.70;86.60;;;;;;5049658;28;20115;-65